sensor_id;sensor_type;location;lat;lon;timestamp;temperature;humidity
4564;DHT22;2294;51.818;8.484;2022-09-16T00:01:00;13.10;99.90
4564;DHT22;2294;51.818;8.484;2022-09-16T00:03:26;12.90;99.90
4564;DHT22;2294;51.818;8.484;2022-09-16T00:05:53;12.90;99.90
4564;DHT22;2294;51.818;8.484;2022-09-16T00:08:21;13.00;99.90
4564;DHT22;2294;51.818;8.484;2022-09-16T00:10:48;13.00;99.90
4564;DHT22;2294;51.818;8.484;2022-09-16T00:13:16;13.00;99.90
4564;DHT22;2294;51.818;8.484;2022-09-16T00:15:46;12.80;99.90
4564;DHT22;2294;51.818;8.484;2022-09-16T00:18:13;12.90;99.90
4564;DHT22;2294;51.818;8.484;2022-09-16T00:20:44;12.90;99.90
4564;DHT22;2294;51.818;8.484;2022-09-16T00:23:11;12.90;99.90
4564;DHT22;2294;51.818;8.484;2022-09-16T00:25:38;12.90;99.90
4564;DHT22;2294;51.818;8.484;2022-09-16T00:28:05;13.00;99.90
4564;DHT22;2294;51.818;8.484;2022-09-16T00:30:32;12.90;99.90
4564;DHT22;2294;51.818;8.484;2022-09-16T00:33:00;12.90;99.90
4564;DHT22;2294;51.818;8.484;2022-09-16T00:35:27;12.80;99.90
4564;DHT22;2294;51.818;8.484;2022-09-16T00:37:54;12.80;99.90
4564;DHT22;2294;51.818;8.484;2022-09-16T00:40:21;12.90;99.90
4564;DHT22;2294;51.818;8.484;2022-09-16T00:42:48;12.90;99.90
4564;DHT22;2294;51.818;8.484;2022-09-16T00:45:17;12.80;99.90
4564;DHT22;2294;51.818;8.484;2022-09-16T00:47:47;12.90;99.90
4564;DHT22;2294;51.818;8.484;2022-09-16T00:50:19;12.90;99.90
4564;DHT22;2294;51.818;8.484;2022-09-16T00:52:48;12.80;99.90
4564;DHT22;2294;51.818;8.484;2022-09-16T00:55:18;12.90;99.90
4564;DHT22;2294;51.818;8.484;2022-09-16T00:57:46;12.80;99.90
4564;DHT22;2294;51.818;8.484;2022-09-16T01:00:13;12.80;99.90
4564;DHT22;2294;51.818;8.484;2022-09-16T01:02:41;12.80;99.90
4564;DHT22;2294;51.818;8.484;2022-09-16T01:05:12;12.70;99.90
4564;DHT22;2294;51.818;8.484;2022-09-16T01:07:44;12.80;99.90
4564;DHT22;2294;51.818;8.484;2022-09-16T01:10:12;12.80;99.90
4564;DHT22;2294;51.818;8.484;2022-09-16T01:12:41;12.80;99.90
4564;DHT22;2294;51.818;8.484;2022-09-16T01:15:10;12.80;99.90
4564;DHT22;2294;51.818;8.484;2022-09-16T01:17:52;12.80;99.90
4564;DHT22;2294;51.818;8.484;2022-09-16T01:24:01;12.80;99.90
4564;DHT22;2294;51.818;8.484;2022-09-16T01:33:02;12.90;99.90
4564;DHT22;2294;51.818;8.484;2022-09-16T01:35:43;12.80;99.90
4564;DHT22;2294;51.818;8.484;2022-09-16T01:38:22;12.90;99.90
4564;DHT22;2294;51.818;8.484;2022-09-16T01:40:57;12.80;99.90
4564;DHT22;2294;51.818;8.484;2022-09-16T01:43:31;12.80;99.90
4564;DHT22;2294;51.818;8.484;2022-09-16T01:46:03;12.80;99.90
4564;DHT22;2294;51.818;8.484;2022-09-16T01:48:38;12.90;99.90
4564;DHT22;2294;51.818;8.484;2022-09-16T01:51:10;12.70;99.90
4564;DHT22;2294;51.818;8.484;2022-09-16T01:53:44;12.80;99.90
4564;DHT22;2294;51.818;8.484;2022-09-16T01:56:17;12.70;99.90
4564;DHT22;2294;51.818;8.484;2022-09-16T01:58:52;12.80;99.90
4564;DHT22;2294;51.818;8.484;2022-09-16T02:01:25;12.70;99.90
4564;DHT22;2294;51.818;8.484;2022-09-16T02:04:00;12.80;99.90
4564;DHT22;2294;51.818;8.484;2022-09-16T02:06:29;12.70;99.90
4564;DHT22;2294;51.818;8.484;2022-09-16T02:08:59;12.70;99.90
4564;DHT22;2294;51.818;8.484;2022-09-16T02:11:28;12.80;99.90
4564;DHT22;2294;51.818;8.484;2022-09-16T02:13:59;12.80;99.90
4564;DHT22;2294;51.818;8.484;2022-09-16T02:16:33;12.80;99.90
4564;DHT22;2294;51.818;8.484;2022-09-16T02:19:06;12.70;99.90
4564;DHT22;2294;51.818;8.484;2022-09-16T02:21:36;12.60;99.90
4564;DHT22;2294;51.818;8.484;2022-09-16T02:24:08;12.70;99.90
4564;DHT22;2294;51.818;8.484;2022-09-16T02:26:38;12.60;99.90
4564;DHT22;2294;51.818;8.484;2022-09-16T02:29:11;12.70;99.90
4564;DHT22;2294;51.818;8.484;2022-09-16T02:31:41;12.60;99.90
4564;DHT22;2294;51.818;8.484;2022-09-16T02:34:13;12.70;99.90
4564;DHT22;2294;51.818;8.484;2022-09-16T02:36:44;12.70;99.90
4564;DHT22;2294;51.818;8.484;2022-09-16T02:39:18;12.60;99.90
4564;DHT22;2294;51.818;8.484;2022-09-16T02:41:46;12.70;99.90
4564;DHT22;2294;51.818;8.484;2022-09-16T02:44:14;12.70;99.90
4564;DHT22;2294;51.818;8.484;2022-09-16T02:46:48;12.60;99.90
4564;DHT22;2294;51.818;8.484;2022-09-16T02:49:25;12.60;99.90
4564;DHT22;2294;51.818;8.484;2022-09-16T02:51:57;12.70;99.90
4564;DHT22;2294;51.818;8.484;2022-09-16T02:54:31;12.70;99.90
4564;DHT22;2294;51.818;8.484;2022-09-16T02:57:01;12.70;99.90
4564;DHT22;2294;51.818;8.484;2022-09-16T02:59:29;12.70;99.90
4564;DHT22;2294;51.818;8.484;2022-09-16T03:01:58;12.60;99.90
4564;DHT22;2294;51.818;8.484;2022-09-16T03:04:27;12.60;99.90
4564;DHT22;2294;51.818;8.484;2022-09-16T03:06:56;12.70;99.90
4564;DHT22;2294;51.818;8.484;2022-09-16T03:09:23;12.70;99.90
4564;DHT22;2294;51.818;8.484;2022-09-16T03:12:03;12.60;99.90
4564;DHT22;2294;51.818;8.484;2022-09-16T03:14:45;12.70;99.90
4564;DHT22;2294;51.818;8.484;2022-09-16T03:17:38;12.60;99.90
4564;DHT22;2294;51.818;8.484;2022-09-16T03:20:14;12.50;99.90
4564;DHT22;2294;51.818;8.484;2022-09-16T03:22:47;12.50;99.90
4564;DHT22;2294;51.818;8.484;2022-09-16T03:25:25;12.40;99.90
4564;DHT22;2294;51.818;8.484;2022-09-16T03:28:00;12.40;99.90
4564;DHT22;2294;51.818;8.484;2022-09-16T03:30:31;12.40;99.90
4564;DHT22;2294;51.818;8.484;2022-09-16T03:33:02;12.40;99.90
4564;DHT22;2294;51.818;8.484;2022-09-16T03:35:36;12.30;99.90
4564;DHT22;2294;51.818;8.484;2022-09-16T03:38:05;12.30;99.90
4564;DHT22;2294;51.818;8.484;2022-09-16T03:40:34;12.40;99.90
4564;DHT22;2294;51.818;8.484;2022-09-16T03:43:09;12.30;99.90
4564;DHT22;2294;51.818;8.484;2022-09-16T03:45:37;12.30;99.90
4564;DHT22;2294;51.818;8.484;2022-09-16T03:48:05;12.20;99.90
4564;DHT22;2294;51.818;8.484;2022-09-16T03:50:33;12.20;99.90
4564;DHT22;2294;51.818;8.484;2022-09-16T03:53:00;12.20;99.90
4564;DHT22;2294;51.818;8.484;2022-09-16T03:55:27;12.10;99.90
4564;DHT22;2294;51.818;8.484;2022-09-16T03:57:54;12.20;99.90
4564;DHT22;2294;51.818;8.484;2022-09-16T04:00:21;12.20;99.90
4564;DHT22;2294;51.818;8.484;2022-09-16T04:02:48;12.20;99.90
4564;DHT22;2294;51.818;8.484;2022-09-16T04:05:15;12.20;99.90
4564;DHT22;2294;51.818;8.484;2022-09-16T04:07:43;12.20;99.90
4564;DHT22;2294;51.818;8.484;2022-09-16T04:10:10;12.20;99.90
4564;DHT22;2294;51.818;8.484;2022-09-16T04:12:37;12.30;99.90
4564;DHT22;2294;51.818;8.484;2022-09-16T04:15:05;12.30;99.90
4564;DHT22;2294;51.818;8.484;2022-09-16T04:17:33;12.30;99.90
4564;DHT22;2294;51.818;8.484;2022-09-16T04:20:00;12.30;99.90
4564;DHT22;2294;51.818;8.484;2022-09-16T04:22:27;12.30;99.90
4564;DHT22;2294;51.818;8.484;2022-09-16T04:24:56;12.30;99.90
4564;DHT22;2294;51.818;8.484;2022-09-16T04:27:23;12.30;99.90
4564;DHT22;2294;51.818;8.484;2022-09-16T04:29:50;12.30;99.90
4564;DHT22;2294;51.818;8.484;2022-09-16T04:32:17;12.40;99.90
4564;DHT22;2294;51.818;8.484;2022-09-16T04:34:44;12.40;99.90
4564;DHT22;2294;51.818;8.484;2022-09-16T04:37:11;12.40;99.90
4564;DHT22;2294;51.818;8.484;2022-09-16T04:39:38;12.40;99.90
4564;DHT22;2294;51.818;8.484;2022-09-16T04:42:07;12.20;99.90
4564;DHT22;2294;51.818;8.484;2022-09-16T04:44:37;12.30;99.90
4564;DHT22;2294;51.818;8.484;2022-09-16T04:47:04;12.30;99.90
4564;DHT22;2294;51.818;8.484;2022-09-16T04:49:30;12.20;99.90
4564;DHT22;2294;51.818;8.484;2022-09-16T04:51:57;12.20;99.90
4564;DHT22;2294;51.818;8.484;2022-09-16T04:54:24;12.20;99.90
4564;DHT22;2294;51.818;8.484;2022-09-16T04:56:51;12.30;99.90
4564;DHT22;2294;51.818;8.484;2022-09-16T04:59:19;12.20;99.90
4564;DHT22;2294;51.818;8.484;2022-09-16T05:01:46;12.30;99.90
4564;DHT22;2294;51.818;8.484;2022-09-16T05:04:13;12.30;99.90
4564;DHT22;2294;51.818;8.484;2022-09-16T05:06:40;12.20;99.90
4564;DHT22;2294;51.818;8.484;2022-09-16T05:09:09;12.10;99.90
4564;DHT22;2294;51.818;8.484;2022-09-16T05:11:38;12.10;99.90
4564;DHT22;2294;51.818;8.484;2022-09-16T05:14:08;12.10;99.90
4564;DHT22;2294;51.818;8.484;2022-09-16T05:16:37;12.20;99.90
4564;DHT22;2294;51.818;8.484;2022-09-16T05:19:04;12.20;99.90
4564;DHT22;2294;51.818;8.484;2022-09-16T05:21:33;12.00;99.90
4564;DHT22;2294;51.818;8.484;2022-09-16T05:24:02;12.00;99.90
4564;DHT22;2294;51.818;8.484;2022-09-16T05:26:31;12.00;99.90
4564;DHT22;2294;51.818;8.484;2022-09-16T05:29:00;12.00;99.90
4564;DHT22;2294;51.818;8.484;2022-09-16T05:31:29;12.10;99.90
4564;DHT22;2294;51.818;8.484;2022-09-16T05:33:59;12.20;99.90
4564;DHT22;2294;51.818;8.484;2022-09-16T05:36:28;12.20;99.90
4564;DHT22;2294;51.818;8.484;2022-09-16T05:38:56;12.20;99.90
4564;DHT22;2294;51.818;8.484;2022-09-16T05:41:23;12.20;99.90
4564;DHT22;2294;51.818;8.484;2022-09-16T05:43:50;12.20;99.90
4564;DHT22;2294;51.818;8.484;2022-09-16T05:46:18;12.20;99.90
4564;DHT22;2294;51.818;8.484;2022-09-16T05:48:46;12.20;99.90
4564;DHT22;2294;51.818;8.484;2022-09-16T05:51:16;12.30;99.90
4564;DHT22;2294;51.818;8.484;2022-09-16T05:53:44;12.30;99.90
4564;DHT22;2294;51.818;8.484;2022-09-16T05:56:14;12.20;99.90
4564;DHT22;2294;51.818;8.484;2022-09-16T05:58:41;12.30;99.90
4564;DHT22;2294;51.818;8.484;2022-09-16T06:01:10;12.30;99.90
4564;DHT22;2294;51.818;8.484;2022-09-16T06:03:38;12.30;99.90
4564;DHT22;2294;51.818;8.484;2022-09-16T06:06:07;12.30;99.90
4564;DHT22;2294;51.818;8.484;2022-09-16T06:08:39;12.30;99.90
4564;DHT22;2294;51.818;8.484;2022-09-16T06:11:09;12.40;99.90
4564;DHT22;2294;51.818;8.484;2022-09-16T06:13:36;12.40;99.90
4564;DHT22;2294;51.818;8.484;2022-09-16T06:16:05;12.50;99.90
4564;DHT22;2294;51.818;8.484;2022-09-16T06:18:32;12.50;99.90
4564;DHT22;2294;51.818;8.484;2022-09-16T06:21:03;12.60;99.90
4564;DHT22;2294;51.818;8.484;2022-09-16T06:23:31;12.60;99.90
4564;DHT22;2294;51.818;8.484;2022-09-16T06:26:00;12.60;99.90
4564;DHT22;2294;51.818;8.484;2022-09-16T06:28:27;12.60;99.90
4564;DHT22;2294;51.818;8.484;2022-09-16T06:31:01;12.60;99.90
4564;DHT22;2294;51.818;8.484;2022-09-16T06:33:28;12.60;99.90
4564;DHT22;2294;51.818;8.484;2022-09-16T06:35:55;12.60;99.90
4564;DHT22;2294;51.818;8.484;2022-09-16T06:38:23;12.70;99.90
4564;DHT22;2294;51.818;8.484;2022-09-16T06:40:49;12.70;99.90
4564;DHT22;2294;51.818;8.484;2022-09-16T06:43:18;12.70;99.90
4564;DHT22;2294;51.818;8.484;2022-09-16T06:45:44;12.80;99.90
4564;DHT22;2294;51.818;8.484;2022-09-16T06:48:11;12.70;99.90
4564;DHT22;2294;51.818;8.484;2022-09-16T06:50:38;12.90;99.90
4564;DHT22;2294;51.818;8.484;2022-09-16T06:53:05;13.00;99.90
4564;DHT22;2294;51.818;8.484;2022-09-16T06:55:32;13.00;99.90
4564;DHT22;2294;51.818;8.484;2022-09-16T06:57:59;13.00;99.90
4564;DHT22;2294;51.818;8.484;2022-09-16T07:00:27;13.00;99.90
4564;DHT22;2294;51.818;8.484;2022-09-16T07:02:54;13.10;99.90
4564;DHT22;2294;51.818;8.484;2022-09-16T07:05:21;13.20;99.90
4564;DHT22;2294;51.818;8.484;2022-09-16T07:07:48;13.30;99.90
4564;DHT22;2294;51.818;8.484;2022-09-16T07:10:14;13.20;99.90
4564;DHT22;2294;51.818;8.484;2022-09-16T07:12:41;13.30;99.90
4564;DHT22;2294;51.818;8.484;2022-09-16T07:15:09;13.30;99.90
4564;DHT22;2294;51.818;8.484;2022-09-16T07:17:37;13.30;99.90
4564;DHT22;2294;51.818;8.484;2022-09-16T07:20:05;13.40;99.90
4564;DHT22;2294;51.818;8.484;2022-09-16T07:22:32;12.40;99.90
4564;DHT22;2294;51.818;8.484;2022-09-16T07:24:59;13.30;99.90
4564;DHT22;2294;51.818;8.484;2022-09-16T07:27:26;13.30;99.90
4564;DHT22;2294;51.818;8.484;2022-09-16T07:29:59;13.40;99.90
4564;DHT22;2294;51.818;8.484;2022-09-16T07:32:26;13.50;99.90
4564;DHT22;2294;51.818;8.484;2022-09-16T07:34:54;13.40;99.90
4564;DHT22;2294;51.818;8.484;2022-09-16T07:37:22;13.50;99.90
4564;DHT22;2294;51.818;8.484;2022-09-16T07:39:49;13.60;99.90
4564;DHT22;2294;51.818;8.484;2022-09-16T07:42:16;13.60;99.90
4564;DHT22;2294;51.818;8.484;2022-09-16T07:44:43;13.40;99.90
4564;DHT22;2294;51.818;8.484;2022-09-16T07:47:10;13.50;99.90
4564;DHT22;2294;51.818;8.484;2022-09-16T07:49:37;13.30;99.90
4564;DHT22;2294;51.818;8.484;2022-09-16T07:52:05;13.30;99.90
4564;DHT22;2294;51.818;8.484;2022-09-16T07:54:32;13.50;99.90
4564;DHT22;2294;51.818;8.484;2022-09-16T07:56:59;13.70;99.90
4564;DHT22;2294;51.818;8.484;2022-09-16T07:59:26;13.80;99.90
4564;DHT22;2294;51.818;8.484;2022-09-16T08:01:53;13.70;99.90
4564;DHT22;2294;51.818;8.484;2022-09-16T08:04:20;13.70;99.90
4564;DHT22;2294;51.818;8.484;2022-09-16T08:06:47;13.60;99.90
4564;DHT22;2294;51.818;8.484;2022-09-16T08:09:16;13.60;99.90
4564;DHT22;2294;51.818;8.484;2022-09-16T08:11:43;13.50;99.90
4564;DHT22;2294;51.818;8.484;2022-09-16T08:14:10;13.50;99.90
4564;DHT22;2294;51.818;8.484;2022-09-16T08:16:36;13.40;99.90
4564;DHT22;2294;51.818;8.484;2022-09-16T08:19:03;13.40;99.90
4564;DHT22;2294;51.818;8.484;2022-09-16T08:21:30;13.40;99.90
4564;DHT22;2294;51.818;8.484;2022-09-16T08:23:57;13.40;99.90
4564;DHT22;2294;51.818;8.484;2022-09-16T08:26:25;13.50;99.90
4564;DHT22;2294;51.818;8.484;2022-09-16T08:28:52;13.40;99.90
4564;DHT22;2294;51.818;8.484;2022-09-16T08:31:19;13.40;99.90
4564;DHT22;2294;51.818;8.484;2022-09-16T08:33:46;13.40;99.90
4564;DHT22;2294;51.818;8.484;2022-09-16T08:36:16;13.60;99.90
4564;DHT22;2294;51.818;8.484;2022-09-16T08:38:44;13.70;99.90
4564;DHT22;2294;51.818;8.484;2022-09-16T08:41:25;13.90;99.90
4564;DHT22;2294;51.818;8.484;2022-09-16T08:44:02;13.90;99.90
4564;DHT22;2294;51.818;8.484;2022-09-16T08:46:35;13.90;99.90
4564;DHT22;2294;51.818;8.484;2022-09-16T08:49:12;13.90;99.90
4564;DHT22;2294;51.818;8.484;2022-09-16T08:51:42;14.00;99.90
4564;DHT22;2294;51.818;8.484;2022-09-16T08:54:14;14.00;99.90
4564;DHT22;2294;51.818;8.484;2022-09-16T08:56:46;14.10;99.90
4564;DHT22;2294;51.818;8.484;2022-09-16T08:59:17;14.20;99.90
4564;DHT22;2294;51.818;8.484;2022-09-16T09:04:17;14.40;99.90
4564;DHT22;2294;51.818;8.484;2022-09-16T09:06:53;14.70;99.90
4564;DHT22;2294;51.818;8.484;2022-09-16T09:09:36;14.90;99.90
4564;DHT22;2294;51.818;8.484;2022-09-16T09:12:11;15.00;99.90
4564;DHT22;2294;51.818;8.484;2022-09-16T09:14:49;15.00;99.90
4564;DHT22;2294;51.818;8.484;2022-09-16T09:17:28;15.60;99.90
4564;DHT22;2294;51.818;8.484;2022-09-16T09:20:06;15.40;99.90
4564;DHT22;2294;51.818;8.484;2022-09-16T09:23:02;15.20;99.90
4564;DHT22;2294;51.818;8.484;2022-09-16T09:25:38;14.90;99.90
4564;DHT22;2294;51.818;8.484;2022-09-16T09:28:17;15.30;99.90
4564;DHT22;2294;51.818;8.484;2022-09-16T09:30:54;15.40;99.90
4564;DHT22;2294;51.818;8.484;2022-09-16T09:33:31;15.40;99.90
4564;DHT22;2294;51.818;8.484;2022-09-16T09:36:21;15.10;99.90
4564;DHT22;2294;51.818;8.484;2022-09-16T09:39:08;15.10;99.90
4564;DHT22;2294;51.818;8.484;2022-09-16T09:41:41;15.50;99.90
4564;DHT22;2294;51.818;8.484;2022-09-16T09:44:27;15.60;99.90
4564;DHT22;2294;51.818;8.484;2022-09-16T09:46:59;15.70;99.90
4564;DHT22;2294;51.818;8.484;2022-09-16T09:49:31;15.40;99.90
4564;DHT22;2294;51.818;8.484;2022-09-16T09:52:03;15.90;99.90
4564;DHT22;2294;51.818;8.484;2022-09-16T09:54:34;15.90;99.90
4564;DHT22;2294;51.818;8.484;2022-09-16T09:57:04;16.00;99.90
4564;DHT22;2294;51.818;8.484;2022-09-16T09:59:40;16.10;99.90
4564;DHT22;2294;51.818;8.484;2022-09-16T10:02:13;16.00;99.90
4564;DHT22;2294;51.818;8.484;2022-09-16T10:04:43;15.80;99.90
4564;DHT22;2294;51.818;8.484;2022-09-16T10:07:12;15.80;99.90
4564;DHT22;2294;51.818;8.484;2022-09-16T10:09:47;15.60;99.90
4564;DHT22;2294;51.818;8.484;2022-09-16T10:12:25;15.60;99.90
4564;DHT22;2294;51.818;8.484;2022-09-16T10:14:54;15.70;99.90
4564;DHT22;2294;51.818;8.484;2022-09-16T10:17:21;15.70;99.90
4564;DHT22;2294;51.818;8.484;2022-09-16T10:19:53;15.90;99.90
4564;DHT22;2294;51.818;8.484;2022-09-16T10:22:23;16.00;99.90
4564;DHT22;2294;51.818;8.484;2022-09-16T10:24:55;15.70;99.90
4564;DHT22;2294;51.818;8.484;2022-09-16T10:27:25;15.70;99.90
4564;DHT22;2294;51.818;8.484;2022-09-16T10:30:11;16.00;99.90
4564;DHT22;2294;51.818;8.484;2022-09-16T10:32:47;15.80;99.90
4564;DHT22;2294;51.818;8.484;2022-09-16T10:35:20;16.00;99.90
4564;DHT22;2294;51.818;8.484;2022-09-16T10:37:51;15.60;99.90
4564;DHT22;2294;51.818;8.484;2022-09-16T10:40:19;16.00;99.90
4564;DHT22;2294;51.818;8.484;2022-09-16T10:42:49;16.50;99.90
4564;DHT22;2294;51.818;8.484;2022-09-16T10:45:24;16.30;99.90
4564;DHT22;2294;51.818;8.484;2022-09-16T10:47:54;16.60;99.90
4564;DHT22;2294;51.818;8.484;2022-09-16T10:50:22;16.70;99.90
4564;DHT22;2294;51.818;8.484;2022-09-16T10:52:50;16.60;99.90
4564;DHT22;2294;51.818;8.484;2022-09-16T10:55:23;16.70;99.90
4564;DHT22;2294;51.818;8.484;2022-09-16T10:57:51;16.30;99.90
4564;DHT22;2294;51.818;8.484;2022-09-16T11:00:21;16.00;99.90
4564;DHT22;2294;51.818;8.484;2022-09-16T11:03:16;16.00;99.90
4564;DHT22;2294;51.818;8.484;2022-09-16T11:05:53;16.20;99.90
4564;DHT22;2294;51.818;8.484;2022-09-16T11:08:33;16.10;99.90
4564;DHT22;2294;51.818;8.484;2022-09-16T11:11:07;16.10;99.90
4564;DHT22;2294;51.818;8.484;2022-09-16T11:13:43;16.40;99.90
4564;DHT22;2294;51.818;8.484;2022-09-16T11:16:29;16.30;99.90
4564;DHT22;2294;51.818;8.484;2022-09-16T11:19:04;16.40;99.90
4564;DHT22;2294;51.818;8.484;2022-09-16T11:21:44;16.30;99.90
4564;DHT22;2294;51.818;8.484;2022-09-16T11:24:30;16.50;99.90
4564;DHT22;2294;51.818;8.484;2022-09-16T11:27:06;16.30;99.90
4564;DHT22;2294;51.818;8.484;2022-09-16T11:29:49;16.70;99.90
4564;DHT22;2294;51.818;8.484;2022-09-16T11:32:27;16.90;99.90
4564;DHT22;2294;51.818;8.484;2022-09-16T11:35:08;17.20;99.90
4564;DHT22;2294;51.818;8.484;2022-09-16T11:37:46;17.90;99.90
4564;DHT22;2294;51.818;8.484;2022-09-16T11:40:27;17.30;99.90
4564;DHT22;2294;51.818;8.484;2022-09-16T11:43:03;16.50;99.90
4564;DHT22;2294;51.818;8.484;2022-09-16T11:45:41;16.20;99.90
4564;DHT22;2294;51.818;8.484;2022-09-16T11:48:25;16.20;99.90
4564;DHT22;2294;51.818;8.484;2022-09-16T11:51:03;17.00;99.90
4564;DHT22;2294;51.818;8.484;2022-09-16T11:53:52;17.50;99.90
4564;DHT22;2294;51.818;8.484;2022-09-16T11:56:30;17.50;99.90
4564;DHT22;2294;51.818;8.484;2022-09-16T11:59:03;17.50;99.90
4564;DHT22;2294;51.818;8.484;2022-09-16T12:01:35;17.70;99.90
4564;DHT22;2294;51.818;8.484;2022-09-16T12:04:11;18.00;99.90
4564;DHT22;2294;51.818;8.484;2022-09-16T12:06:49;17.70;99.90
4564;DHT22;2294;51.818;8.484;2022-09-16T12:09:23;18.10;99.90
4564;DHT22;2294;51.818;8.484;2022-09-16T12:11:58;17.80;99.90
4564;DHT22;2294;51.818;8.484;2022-09-16T12:14:34;17.80;99.90
4564;DHT22;2294;51.818;8.484;2022-09-16T12:17:05;17.60;99.90
4564;DHT22;2294;51.818;8.484;2022-09-16T12:19:37;17.20;99.90
4564;DHT22;2294;51.818;8.484;2022-09-16T12:22:12;17.00;99.90
4564;DHT22;2294;51.818;8.484;2022-09-16T12:24:43;17.00;99.90
4564;DHT22;2294;51.818;8.484;2022-09-16T12:27:24;17.30;99.90
4564;DHT22;2294;51.818;8.484;2022-09-16T12:29:56;18.10;99.90
4564;DHT22;2294;51.818;8.484;2022-09-16T12:32:37;18.40;99.90
4564;DHT22;2294;51.818;8.484;2022-09-16T12:35:13;17.60;99.90
4564;DHT22;2294;51.818;8.484;2022-09-16T12:37:45;17.70;99.90
4564;DHT22;2294;51.818;8.484;2022-09-16T12:40:16;17.70;99.90
4564;DHT22;2294;51.818;8.484;2022-09-16T12:52:10;15.00;99.90
4564;DHT22;2294;51.818;8.484;2022-09-16T12:55:06;14.70;99.90
4564;DHT22;2294;51.818;8.484;2022-09-16T12:57:50;14.50;99.90
4564;DHT22;2294;51.818;8.484;2022-09-16T13:00:20;14.10;99.90
4564;DHT22;2294;51.818;8.484;2022-09-16T13:02:50;14.00;99.90
4564;DHT22;2294;51.818;8.484;2022-09-16T13:05:21;14.00;99.90
4564;DHT22;2294;51.818;8.484;2022-09-16T13:07:52;14.50;99.90
4564;DHT22;2294;51.818;8.484;2022-09-16T13:10:28;15.10;99.90
4564;DHT22;2294;51.818;8.484;2022-09-16T13:12:58;15.40;99.90
4564;DHT22;2294;51.818;8.484;2022-09-16T13:15:28;16.00;99.90
4564;DHT22;2294;51.818;8.484;2022-09-16T13:18:07;16.10;99.90
4564;DHT22;2294;51.818;8.484;2022-09-16T13:20:36;16.00;99.90
4564;DHT22;2294;51.818;8.484;2022-09-16T13:23:12;16.00;99.90
4564;DHT22;2294;51.818;8.484;2022-09-16T13:25:47;16.10;99.90
4564;DHT22;2294;51.818;8.484;2022-09-16T13:28:35;16.20;99.90
4564;DHT22;2294;51.818;8.484;2022-09-16T13:31:17;17.40;99.90
4564;DHT22;2294;51.818;8.484;2022-09-16T13:33:45;18.50;99.90
4564;DHT22;2294;51.818;8.484;2022-09-16T13:36:28;17.90;99.90
4564;DHT22;2294;51.818;8.484;2022-09-16T13:38:58;18.70;99.90
4564;DHT22;2294;51.818;8.484;2022-09-16T13:41:32;20.30;99.90
4564;DHT22;2294;51.818;8.484;2022-09-16T13:43:59;20.70;99.90
4564;DHT22;2294;51.818;8.484;2022-09-16T13:46:30;21.40;99.90
4564;DHT22;2294;51.818;8.484;2022-09-16T13:51:46;20.60;99.90
4564;DHT22;2294;51.818;8.484;2022-09-16T13:54:23;20.60;99.90
4564;DHT22;2294;51.818;8.484;2022-09-16T13:57:06;21.60;99.90
4564;DHT22;2294;51.818;8.484;2022-09-16T13:59:44;21.50;99.90
4564;DHT22;2294;51.818;8.484;2022-09-16T14:02:23;21.10;99.90
4564;DHT22;2294;51.818;8.484;2022-09-16T14:08:10;20.10;99.90
4564;DHT22;2294;51.818;8.484;2022-09-16T14:10:49;19.50;99.90
4564;DHT22;2294;51.818;8.484;2022-09-16T14:13:19;19.10;99.90
4564;DHT22;2294;51.818;8.484;2022-09-16T14:15:50;21.60;99.90
4564;DHT22;2294;51.818;8.484;2022-09-16T14:18:20;22.20;99.90
4564;DHT22;2294;51.818;8.484;2022-09-16T14:20:59;21.80;99.90
4564;DHT22;2294;51.818;8.484;2022-09-16T14:23:27;20.70;99.90
4564;DHT22;2294;51.818;8.484;2022-09-16T14:25:56;19.10;99.90
4564;DHT22;2294;51.818;8.484;2022-09-16T14:28:24;19.20;99.90
4564;DHT22;2294;51.818;8.484;2022-09-16T14:30:54;20.80;99.90
4564;DHT22;2294;51.818;8.484;2022-09-16T14:33:25;22.00;99.90
4564;DHT22;2294;51.818;8.484;2022-09-16T14:35:54;21.30;99.90
4564;DHT22;2294;51.818;8.484;2022-09-16T14:38:30;20.60;99.90
4564;DHT22;2294;51.818;8.484;2022-09-16T14:40:59;21.00;99.90
4564;DHT22;2294;51.818;8.484;2022-09-16T14:43:26;21.00;99.90
4564;DHT22;2294;51.818;8.484;2022-09-16T14:45:55;19.60;99.90
4564;DHT22;2294;51.818;8.484;2022-09-16T14:48:28;19.90;99.90
4564;DHT22;2294;51.818;8.484;2022-09-16T14:50:56;19.50;99.90
4564;DHT22;2294;51.818;8.484;2022-09-16T14:53:26;19.20;99.90
4564;DHT22;2294;51.818;8.484;2022-09-16T14:55:54;20.50;99.90
4564;DHT22;2294;51.818;8.484;2022-09-16T14:58:24;20.50;99.90
4564;DHT22;2294;51.818;8.484;2022-09-16T15:00:55;18.70;99.90
4564;DHT22;2294;51.818;8.484;2022-09-16T15:03:26;17.80;99.90
4564;DHT22;2294;51.818;8.484;2022-09-16T15:05:57;18.00;99.90
4564;DHT22;2294;51.818;8.484;2022-09-16T15:08:32;17.90;99.90
4564;DHT22;2294;51.818;8.484;2022-09-16T15:11:03;17.30;99.90
4564;DHT22;2294;51.818;8.484;2022-09-16T15:13:38;17.70;99.90
4564;DHT22;2294;51.818;8.484;2022-09-16T15:16:09;17.40;99.90
4564;DHT22;2294;51.818;8.484;2022-09-16T15:18:38;17.60;99.90
4564;DHT22;2294;51.818;8.484;2022-09-16T15:21:07;16.90;99.90
4564;DHT22;2294;51.818;8.484;2022-09-16T15:23:37;16.80;99.90
4564;DHT22;2294;51.818;8.484;2022-09-16T15:26:13;16.70;99.90
4564;DHT22;2294;51.818;8.484;2022-09-16T15:28:56;15.60;99.90
4564;DHT22;2294;51.818;8.484;2022-09-16T15:31:32;14.60;99.90
4564;DHT22;2294;51.818;8.484;2022-09-16T15:34:01;14.50;99.90
4564;DHT22;2294;51.818;8.484;2022-09-16T15:36:34;13.70;99.90
4564;DHT22;2294;51.818;8.484;2022-09-16T15:39:02;13.60;99.90
4564;DHT22;2294;51.818;8.484;2022-09-16T15:41:29;13.60;99.90
4564;DHT22;2294;51.818;8.484;2022-09-16T15:43:59;13.40;99.90
4564;DHT22;2294;51.818;8.484;2022-09-16T15:46:26;13.20;99.90
4564;DHT22;2294;51.818;8.484;2022-09-16T15:48:55;12.90;99.90
4564;DHT22;2294;51.818;8.484;2022-09-16T15:51:28;13.20;99.90
4564;DHT22;2294;51.818;8.484;2022-09-16T15:54:00;13.50;99.90
4564;DHT22;2294;51.818;8.484;2022-09-16T15:56:32;13.60;99.90
4564;DHT22;2294;51.818;8.484;2022-09-16T15:59:04;13.60;99.90
4564;DHT22;2294;51.818;8.484;2022-09-16T16:01:37;14.90;99.90
4564;DHT22;2294;51.818;8.484;2022-09-16T16:04:07;14.30;99.90
4564;DHT22;2294;51.818;8.484;2022-09-16T16:06:49;14.30;99.90
4564;DHT22;2294;51.818;8.484;2022-09-16T16:09:39;13.90;99.90
4564;DHT22;2294;51.818;8.484;2022-09-16T16:12:08;14.00;99.90
4564;DHT22;2294;51.818;8.484;2022-09-16T16:14:38;13.80;99.90
4564;DHT22;2294;51.818;8.484;2022-09-16T16:17:08;13.80;99.90
4564;DHT22;2294;51.818;8.484;2022-09-16T16:19:39;13.40;99.90
4564;DHT22;2294;51.818;8.484;2022-09-16T16:22:06;12.80;99.90
4564;DHT22;2294;51.818;8.484;2022-09-16T16:24:33;13.00;99.90
4564;DHT22;2294;51.818;8.484;2022-09-16T16:27:00;13.20;99.90
4564;DHT22;2294;51.818;8.484;2022-09-16T16:29:27;13.40;99.90
4564;DHT22;2294;51.818;8.484;2022-09-16T16:32:04;13.60;99.90
4564;DHT22;2294;51.818;8.484;2022-09-16T16:34:33;13.50;99.90
4564;DHT22;2294;51.818;8.484;2022-09-16T16:37:00;13.50;99.90
4564;DHT22;2294;51.818;8.484;2022-09-16T16:39:27;13.40;99.90
4564;DHT22;2294;51.818;8.484;2022-09-16T16:41:54;13.30;99.90
4564;DHT22;2294;51.818;8.484;2022-09-16T16:44:22;13.30;99.90
4564;DHT22;2294;51.818;8.484;2022-09-16T16:46:50;13.50;99.90
4564;DHT22;2294;51.818;8.484;2022-09-16T16:49:20;13.40;99.90
4564;DHT22;2294;51.818;8.484;2022-09-16T16:51:47;13.30;99.90
4564;DHT22;2294;51.818;8.484;2022-09-16T16:54:15;13.10;99.90
4564;DHT22;2294;51.818;8.484;2022-09-16T16:56:43;13.30;99.90